createdAt,value
2018-09-15T00:00:05.573Z,6.73
2018-09-15T00:03:10.022Z,8.03
2018-09-15T00:06:14.437Z,6.83
2018-09-15T00:09:19.007Z,5.97
2018-09-15T00:12:23.608Z,7.37
2018-09-15T00:15:28.040Z,7.93
2018-09-15T00:18:32.542Z,6.43
2018-09-15T00:21:36.951Z,7.63
2018-09-15T00:24:41.472Z,6.87
2018-09-15T00:27:46.041Z,6.50
2018-09-15T00:30:50.531Z,8.00
2018-09-15T00:33:54.988Z,5.20
2018-09-15T00:36:59.425Z,6.17
2018-09-15T00:40:03.923Z,5.33
2018-09-15T00:43:08.484Z,5.50
2018-09-15T00:46:13.034Z,6.10
2018-09-15T00:49:17.414Z,5.90
2018-09-15T00:52:22.202Z,9.53
2018-09-15T00:55:26.652Z,5.63
2018-09-15T00:58:31.073Z,6.07
2018-09-15T01:01:35.652Z,5.90
2018-09-15T01:04:40.155Z,5.47
2018-09-15T01:07:44.673Z,6.40
2018-09-15T01:10:49.155Z,6.50
2018-09-15T01:13:54.355Z,6.13
2018-09-15T01:16:58.903Z,7.00
2018-09-15T01:20:03.448Z,7.03
2018-09-15T01:23:07.977Z,6.23
2018-09-15T01:26:12.407Z,6.53
2018-09-15T01:29:16.802Z,7.20
2018-09-15T01:32:21.498Z,6.03
2018-09-15T01:35:26.942Z,5.33
2018-09-15T01:38:31.508Z,6.03
2018-09-15T01:41:36.294Z,8.07
2018-09-15T01:44:41.027Z,7.97
2018-09-15T01:47:45.559Z,6.20
2018-09-15T01:50:49.973Z,6.40
2018-09-15T01:53:54.552Z,6.00
2018-09-15T01:56:58.963Z,5.80
2018-09-15T02:00:05.218Z,9.93
2018-09-15T02:03:09.690Z,5.73
2018-09-15T02:06:14.107Z,5.80
2018-09-15T02:09:18.663Z,6.00
2018-09-15T02:12:23.169Z,6.20
2018-09-15T02:15:27.658Z,5.23
2018-09-15T02:18:32.175Z,7.20
2018-09-15T02:21:37.017Z,6.97
2018-09-15T02:24:41.607Z,6.67
2018-09-15T02:27:46.064Z,9.47
2018-09-15T02:30:50.598Z,7.80
2018-09-15T02:33:55.116Z,10.90
2018-09-15T02:36:59.598Z,7.10
2018-09-15T02:40:04.117Z,6.67
2018-09-15T02:43:08.595Z,8.67
2018-09-15T02:46:13.284Z,11.17
2018-09-15T02:49:17.719Z,6.77
2018-09-15T02:52:22.203Z,7.80
2018-09-15T02:55:26.598Z,8.70
2018-09-15T02:58:31.093Z,6.30
2018-09-15T03:01:35.604Z,8.53
2018-09-15T03:04:40.100Z,6.17
2018-09-15T03:07:44.573Z,7.27
2018-09-15T03:10:49.127Z,7.60
2018-09-15T03:13:53.548Z,7.43
2018-09-15T03:16:58.053Z,8.53
2018-09-15T03:20:02.501Z,8.87
2018-09-15T03:23:07.119Z,6.93
2018-09-15T03:26:11.687Z,8.20
2018-09-15T03:29:16.091Z,6.80
2018-09-15T03:32:20.647Z,7.03
2018-09-15T03:35:25.095Z,6.83
2018-09-15T03:38:29.829Z,11.47
2018-09-15T03:41:34.383Z,6.73
2018-09-15T03:44:38.821Z,9.23
2018-09-15T03:47:44.217Z,7.43
2018-09-15T03:50:48.821Z,7.20
2018-09-15T03:53:53.315Z,9.30
2018-09-15T03:56:57.754Z,6.93
2018-09-15T04:00:02.345Z,7.27
2018-09-15T04:03:06.878Z,7.20
2018-09-15T04:06:12.582Z,7.13
2018-09-15T04:09:17.034Z,6.57
2018-09-15T04:12:21.575Z,8.47
2018-09-15T04:15:25.983Z,6.63
2018-09-15T04:18:30.541Z,6.97
2018-09-15T04:21:35.112Z,7.13
2018-09-15T04:24:39.585Z,9.23
2018-09-15T04:27:44.005Z,7.43
2018-09-15T04:30:48.544Z,7.37
2018-09-15T04:33:53.456Z,8.60
2018-09-15T04:36:57.921Z,7.50
2018-09-15T04:40:02.334Z,8.53
2018-09-15T04:43:06.807Z,8.23
2018-09-15T04:46:11.209Z,7.57
2018-09-15T04:49:15.626Z,6.53
2018-09-15T04:52:20.143Z,6.53
2018-09-15T04:55:24.568Z,6.97
2018-09-15T04:58:29.061Z,6.80
2018-09-15T05:01:33.568Z,7.67
2018-09-15T05:04:38.098Z,7.23
2018-09-15T05:07:42.658Z,7.03
2018-09-15T05:10:47.233Z,7.97
2018-09-15T05:13:51.883Z,10.57
2018-09-15T05:16:56.487Z,8.97
2018-09-15T05:20:00.885Z,6.37
2018-09-15T05:23:05.576Z,9.33
2018-09-15T05:26:10.042Z,8.03
2018-09-15T05:29:14.506Z,8.03
2018-09-15T05:32:18.991Z,7.47
2018-09-15T05:35:23.407Z,5.10
2018-09-15T05:38:27.935Z,6.80
2018-09-15T05:41:32.423Z,5.83
2018-09-15T05:44:36.840Z,6.13
2018-09-15T05:47:41.365Z,4.40
2018-09-15T05:50:45.830Z,8.70
2018-09-15T05:53:50.411Z,6.70
2018-09-15T05:56:54.903Z,5.97
2018-09-15T05:59:59.911Z,6.03
2018-09-15T06:03:04.437Z,6.30
2018-09-15T06:06:08.855Z,6.77
2018-09-15T06:09:13.294Z,6.43
2018-09-15T06:12:17.753Z,6.07
2018-09-15T06:15:22.165Z,6.80
2018-09-15T06:18:26.595Z,7.47
2018-09-15T06:21:31.032Z,9.37
2018-09-15T06:24:35.474Z,6.63
2018-09-15T06:27:40.031Z,7.80
2018-09-15T06:30:44.446Z,7.63
2018-09-15T06:33:48.962Z,8.07
2018-09-15T06:36:53.434Z,6.13
2018-09-15T06:39:57.856Z,6.57
2018-09-15T06:43:02.536Z,8.97
2018-09-15T06:46:07.164Z,5.20
2018-09-15T06:49:11.725Z,5.17
2018-09-15T06:52:16.177Z,4.67
2018-09-15T06:55:20.747Z,5.70
2018-09-15T06:58:25.352Z,5.90
2018-09-15T07:01:30.419Z,7.83
2018-09-15T07:04:34.799Z,8.73
2018-09-15T07:07:39.263Z,5.23
2018-09-15T07:10:43.668Z,7.10
2018-09-15T07:13:48.251Z,5.27
2018-09-15T07:16:52.736Z,8.37
2018-09-15T07:19:57.246Z,7.20
2018-09-15T07:23:01.686Z,5.30
2018-09-15T07:26:06.381Z,4.70
2018-09-15T07:29:10.754Z,5.90
2018-09-15T07:32:15.244Z,6.33
2018-09-15T07:35:19.811Z,8.30
2018-09-15T07:38:24.276Z,5.00
2018-09-15T07:41:28.741Z,4.80
2018-09-15T07:44:33.263Z,6.80
2018-09-15T07:47:37.782Z,5.27
2018-09-15T07:50:42.403Z,8.40
2018-09-15T07:53:46.990Z,5.17
2018-09-15T07:56:51.422Z,5.87
2018-09-15T07:59:55.997Z,4.67
2018-09-15T08:03:00.436Z,5.33
2018-09-15T08:06:05.103Z,6.70
2018-09-15T08:09:09.691Z,5.53
2018-09-15T08:12:14.627Z,6.50
2018-09-15T08:15:19.259Z,7.77
2018-09-15T08:18:23.795Z,10.43
2018-09-15T08:21:28.219Z,7.57
2018-09-15T08:24:32.965Z,6.67
2018-09-15T08:27:37.500Z,7.07
2018-09-15T08:30:42.031Z,6.70
2018-09-15T08:33:46.481Z,7.00
2018-09-15T08:36:51.009Z,7.47
2018-09-15T08:39:56.095Z,6.80
2018-09-15T08:43:00.687Z,6.33
2018-09-15T08:46:05.439Z,6.93
2018-09-15T08:49:10.044Z,8.60
2018-09-15T08:52:14.713Z,3.87
2018-09-15T08:55:19.141Z,6.20
2018-09-15T08:58:23.577Z,6.70
2018-09-15T09:01:28.083Z,8.80
2018-09-15T09:04:32.526Z,8.83
2018-09-15T09:07:37.229Z,12.20
2018-09-15T09:10:41.682Z,8.67
2018-09-15T09:13:46.343Z,5.80
2018-09-15T09:16:50.809Z,8.50
2018-09-15T09:19:55.477Z,7.00
2018-09-15T09:22:59.916Z,10.30
2018-09-15T09:26:04.488Z,8.00
2018-09-15T09:29:08.831Z,6.30
2018-09-15T09:32:13.289Z,6.13
2018-09-15T09:35:17.829Z,8.77
2018-09-15T09:38:22.294Z,7.83
2018-09-15T09:41:26.985Z,6.83
2018-09-15T09:44:31.481Z,7.77
2018-09-15T09:47:36.160Z,5.27
2018-09-15T09:50:40.635Z,5.63
2018-09-15T09:53:45.162Z,13.37
2018-09-15T09:56:49.612Z,11.70
2018-09-15T09:59:54.460Z,8.97
2018-09-15T10:02:58.938Z,7.10
2018-09-15T10:06:03.720Z,6.43
2018-09-15T10:09:10.630Z,5.60
2018-09-15T10:12:15.190Z,7.67
2018-09-15T10:15:19.641Z,5.87
2018-09-15T10:18:24.129Z,6.90
2018-09-15T10:21:28.681Z,4.33
2018-09-15T10:24:33.190Z,5.97
2018-09-15T10:27:37.711Z,4.20
2018-09-15T10:30:42.217Z,6.20
2018-09-15T10:33:46.696Z,6.27
2018-09-15T10:36:51.193Z,5.93
2018-09-15T10:39:55.654Z,7.57
2018-09-15T10:43:00.191Z,5.60
2018-09-15T10:46:04.662Z,4.20
2018-09-15T10:49:09.083Z,5.27
2018-09-15T10:52:13.584Z,7.93
2018-09-15T10:55:17.994Z,7.27
2018-09-15T10:58:22.704Z,8.10
2018-09-15T11:01:27.344Z,8.80
2018-09-15T11:04:31.760Z,5.43
2018-09-15T11:07:36.230Z,8.70
2018-09-15T11:10:40.713Z,7.87
2018-09-15T11:13:45.213Z,9.03
2018-09-15T11:16:49.657Z,5.07
2018-09-15T11:19:54.072Z,7.00
2018-09-15T11:22:58.600Z,8.47
2018-09-15T11:26:03.131Z,5.63
2018-09-15T11:29:08.029Z,4.47
2018-09-15T11:32:12.381Z,5.13
2018-09-15T11:35:16.975Z,4.97
2018-09-15T11:38:21.446Z,5.50
2018-09-15T11:41:26.163Z,4.00
2018-09-15T11:44:30.752Z,5.63
2018-09-15T11:47:35.321Z,5.63
2018-09-15T11:50:39.823Z,3.87
2018-09-15T11:53:44.291Z,6.23
2018-09-15T11:56:48.783Z,5.00
2018-09-15T11:59:53.441Z,3.77
2018-09-15T12:02:57.863Z,6.00
2018-09-15T12:06:02.535Z,7.47
2018-09-15T12:09:09.176Z,3.53
2018-09-15T12:12:13.607Z,6.63
2018-09-15T12:15:18.425Z,6.00
2018-09-15T12:18:22.880Z,3.70
2018-09-15T12:21:27.458Z,5.83
2018-09-15T12:24:31.861Z,5.40
2018-09-15T12:27:36.384Z,4.17
2018-09-15T12:30:40.841Z,5.73
2018-09-15T12:33:45.321Z,3.10
2018-09-15T12:36:50.022Z,5.93
2018-09-15T12:39:54.450Z,4.27
2018-09-15T12:42:58.951Z,3.60
2018-09-15T12:46:03.508Z,2.93
2018-09-15T12:49:07.941Z,2.87
2018-09-15T12:52:12.460Z,3.57
2018-09-15T12:55:17.100Z,3.77
2018-09-15T12:58:21.590Z,3.50
2018-09-15T13:01:26.231Z,3.63
2018-09-15T13:04:30.770Z,6.50
2018-09-15T13:07:35.243Z,2.00
2018-09-15T13:10:39.730Z,1.97
2018-09-15T13:13:44.154Z,3.83
2018-09-15T13:16:48.794Z,3.57
2018-09-15T13:19:53.279Z,3.77
2018-09-15T13:22:57.774Z,3.20
2018-09-15T13:26:02.230Z,5.97
2018-09-15T13:29:06.803Z,4.30
2018-09-15T13:32:11.300Z,2.87
2018-09-15T13:35:15.766Z,3.53
2018-09-15T13:38:20.232Z,3.27
2018-09-15T13:41:24.732Z,2.60
2018-09-15T13:44:29.322Z,3.00
2018-09-15T13:47:33.805Z,6.40
2018-09-15T13:50:38.355Z,5.33
2018-09-15T13:53:42.928Z,4.30
2018-09-15T13:56:47.419Z,7.23
2018-09-15T13:59:51.870Z,4.37
2018-09-15T14:02:56.448Z,2.30
2018-09-15T14:06:01.047Z,3.03
2018-09-15T14:09:07.994Z,3.53
2018-09-15T14:12:12.624Z,3.20
2018-09-15T14:15:26.866Z,4.07
2018-09-15T14:18:34.481Z,2.13
2018-09-15T14:21:40.380Z,2.90
2018-09-15T14:24:44.826Z,2.57
2018-09-15T14:27:49.417Z,2.40
2018-09-15T14:30:53.890Z,6.07
2018-09-15T14:33:58.326Z,3.33
2018-09-15T14:37:02.776Z,3.47
2018-09-15T14:40:07.360Z,1.97
2018-09-15T14:43:11.874Z,2.53
2018-09-15T14:46:16.306Z,3.53
2018-09-15T14:49:20.868Z,5.23
2018-09-15T14:52:25.629Z,4.10
2018-09-15T14:55:30.106Z,5.23
2018-09-15T14:58:34.732Z,2.40
2018-09-15T15:01:39.646Z,1.50
2018-09-15T15:04:44.868Z,1.87
2018-09-15T15:07:50.129Z,4.90
2018-09-15T15:10:54.614Z,2.83
2018-09-15T15:13:59.422Z,4.37
2018-09-15T15:17:03.864Z,1.53
2018-09-15T15:20:08.459Z,1.47
2018-09-15T15:23:12.971Z,2.13
2018-09-15T15:26:17.660Z,2.13
2018-09-15T15:29:23.014Z,1.07
2018-09-15T15:32:27.779Z,2.07
2018-09-15T15:35:32.744Z,1.53
2018-09-15T15:38:37.136Z,2.07
2018-09-15T15:41:41.594Z,2.03
2018-09-15T15:44:46.379Z,2.67
2018-09-15T15:47:50.868Z,4.03
2018-09-15T15:50:55.392Z,2.17
2018-09-15T15:53:59.914Z,3.53
2018-09-15T15:57:04.447Z,2.80
2018-09-15T16:00:09.026Z,1.67
2018-09-15T16:03:13.547Z,2.20
2018-09-15T16:06:18.680Z,4.73
2018-09-15T16:09:23.102Z,2.70
2018-09-15T16:12:27.545Z,3.23
2018-09-15T16:15:32.265Z,2.50
2018-09-15T16:18:36.724Z,3.23
2018-09-15T16:21:41.182Z,2.57
2018-09-15T16:24:45.719Z,2.03
2018-09-15T16:27:50.572Z,2.30
2018-09-15T16:30:55.185Z,1.30
2018-09-15T16:33:59.691Z,2.20
2018-09-15T16:37:04.154Z,5.97
2018-09-15T16:40:08.696Z,2.90
2018-09-15T16:43:13.182Z,1.60
2018-09-15T16:46:17.723Z,1.30
2018-09-15T16:49:22.242Z,4.40
2018-09-15T16:52:26.580Z,2.30
2018-09-15T16:55:31.046Z,1.77
2018-09-15T16:58:35.587Z,1.90
2018-09-15T17:01:40.190Z,2.87
2018-09-15T17:05:05.132Z,5.67
2018-09-15T17:08:09.650Z,1.33
2018-09-15T17:11:14.186Z,1.13
2018-09-15T17:14:32.192Z,2.60
2018-09-15T17:17:36.682Z,1.43
2018-09-15T17:20:41.235Z,1.17
2018-09-15T17:23:45.641Z,3.40
2018-09-15T17:26:50.276Z,3.70
2018-09-15T17:29:54.742Z,4.33
2018-09-15T17:32:59.186Z,1.23
2018-09-15T17:36:03.856Z,2.13
2018-09-15T17:39:11.306Z,2.27
2018-09-15T17:42:15.856Z,2.20
2018-09-15T17:45:20.477Z,3.13
2018-09-15T17:48:24.827Z,3.40
2018-09-15T17:51:29.305Z,3.03
2018-09-15T17:54:33.816Z,1.53
2018-09-15T17:57:38.346Z,1.33
2018-09-15T18:00:42.855Z,2.13
2018-09-15T18:03:47.409Z,1.97
2018-09-15T18:06:51.929Z,2.60
2018-09-15T18:09:56.432Z,3.53
2018-09-15T18:13:00.945Z,2.43
2018-09-15T18:16:05.492Z,3.30
2018-09-15T18:19:10.002Z,2.10
2018-09-15T18:22:15.691Z,2.00
2018-09-15T18:25:20.156Z,2.60
2018-09-15T18:28:24.678Z,2.07
2018-09-15T18:31:29.238Z,3.30
2018-09-15T18:34:33.735Z,3.40
2018-09-15T18:37:38.287Z,2.20
2018-09-15T18:40:42.794Z,1.63
2018-09-15T18:43:47.636Z,2.20
2018-09-15T18:46:52.215Z,4.50
2018-09-15T18:49:56.694Z,1.60
2018-09-15T18:53:01.272Z,1.70
2018-09-15T18:56:05.881Z,1.60
2018-09-15T18:59:10.440Z,2.70
2018-09-15T19:02:17.998Z,1.77
2018-09-15T19:05:22.680Z,1.20
2018-09-15T19:08:27.115Z,2.77
2018-09-15T19:11:31.606Z,1.63
2018-09-15T19:14:36.156Z,1.50
2018-09-15T19:17:40.627Z,1.60
2018-09-15T19:20:45.178Z,2.10
2018-09-15T19:23:49.679Z,1.57
2018-09-15T19:26:54.307Z,3.97
2018-09-15T19:29:58.971Z,3.63
2018-09-15T19:33:03.427Z,3.43
2018-09-15T19:36:08.039Z,3.27
2018-09-15T19:39:14.115Z,2.10
2018-09-15T19:42:18.639Z,2.87
2018-09-15T19:45:23.135Z,1.43
2018-09-15T19:48:27.749Z,1.30
2018-09-15T19:51:32.181Z,3.57
2018-09-15T19:54:36.653Z,4.10
2018-09-15T19:57:41.162Z,2.37
2018-09-15T20:00:45.670Z,3.47
2018-09-15T20:03:50.096Z,2.20
2018-09-15T20:06:54.598Z,3.00
2018-09-15T20:09:59.143Z,2.00
2018-09-15T20:13:03.675Z,1.87
2018-09-15T20:16:06.436Z,1.30
2018-09-15T20:19:09.243Z,3.53
2018-09-15T20:22:13.865Z,2.03
2018-09-15T20:25:18.363Z,2.10
2018-09-15T20:28:22.995Z,1.60
2018-09-15T20:31:27.515Z,2.90
2018-09-15T20:34:32.011Z,2.03
2018-09-15T20:37:36.895Z,1.93
2018-09-15T20:40:41.407Z,2.00
2018-09-15T20:43:45.901Z,3.13
2018-09-15T20:46:50.470Z,1.57
2018-09-15T20:49:54.961Z,1.67
2018-09-15T20:52:59.498Z,3.97
2018-09-15T20:56:04.016Z,1.60
2018-09-15T20:59:08.581Z,2.97
2018-09-15T21:02:13.381Z,1.23
2018-09-15T21:05:17.911Z,2.37
2018-09-15T21:08:22.399Z,1.93
2018-09-15T21:11:26.973Z,2.33
2018-09-15T21:14:31.455Z,1.90
2018-09-15T21:17:35.987Z,1.80
2018-09-15T21:20:40.473Z,3.27
2018-09-15T21:23:45.138Z,2.93
2018-09-15T21:26:49.665Z,3.47
2018-09-15T21:29:54.148Z,1.83
2018-09-15T21:32:58.664Z,1.40
2018-09-15T21:36:03.271Z,2.07
2018-09-15T21:39:11.516Z,1.40
2018-09-15T21:42:16.020Z,1.50
2018-09-15T21:45:20.518Z,1.97
2018-09-15T21:48:25.128Z,2.40
2018-09-15T21:51:29.704Z,1.13
2018-09-15T21:54:34.207Z,1.83
2018-09-15T21:57:38.642Z,1.93
2018-09-15T22:00:43.195Z,2.57
2018-09-15T22:03:53.065Z,2.17
2018-09-15T22:06:57.532Z,1.60
2018-09-15T22:10:02.039Z,3.07
2018-09-15T22:13:06.555Z,3.13
2018-09-15T22:16:11.007Z,2.17
2018-09-15T22:19:15.474Z,2.53
2018-09-15T22:22:20.466Z,3.47
2018-09-15T22:25:24.885Z,3.40
2018-09-15T22:28:29.317Z,4.17
2018-09-15T22:31:33.726Z,1.60
2018-09-15T22:34:38.208Z,1.97
2018-09-15T22:37:42.868Z,2.30
2018-09-15T22:40:47.298Z,1.60
2018-09-15T22:43:51.914Z,3.70
2018-09-15T22:46:56.365Z,2.70
2018-09-15T22:50:00.781Z,1.90
2018-09-15T22:53:05.250Z,4.63
2018-09-15T22:56:09.674Z,2.37
2018-09-15T22:59:14.121Z,2.43
2018-09-15T23:02:18.743Z,2.10
2018-09-15T23:05:23.228Z,4.47
2018-09-15T23:08:27.716Z,3.07
2018-09-15T23:11:32.158Z,2.20
2018-09-15T23:14:36.654Z,3.13
2018-09-15T23:17:41.139Z,1.97
2018-09-15T23:20:45.771Z,3.80
2018-09-15T23:23:50.263Z,1.77
2018-09-15T23:26:54.838Z,2.37
2018-09-15T23:29:59.334Z,3.13
2018-09-15T23:33:04.329Z,2.63
2018-09-15T23:36:09.241Z,2.33
2018-09-15T23:39:13.758Z,3.00
2018-09-15T23:42:18.268Z,2.93
2018-09-15T23:45:22.706Z,2.73
2018-09-15T23:48:27.196Z,4.50
2018-09-15T23:51:31.613Z,3.77
2018-09-15T23:54:36.054Z,1.87
2018-09-15T23:57:40.597Z,2.67
